Time;durP1;ratioP1;P1;durP2;ratioP2;P2;SDS_P1;SDS_P2;PMS_P1;PMS_P2;Temp;Humidity;BMP_temperature;BMP_pressure;BME280_temperature;BME280_humidity;BME280_pressure;Samples;Min_cycle;Max_cycle;Signal;HPM_P1;HPM_P2
2021/07/02 00:02:07;;;;;;;33.85;31.63;;;;;;;17.94;67.45;93029.72;5071009;28;20036;-57
2021/07/02 00:04:33;;;;;;;34.72;32.38;;;;;;;17.98;67.59;93029.97;5070777;28;20021;-57
2021/07/02 00:06:59;;;;;;;32.55;30.52;;;;;;;17.92;67.39;93031.66;5070151;28;20028;-59
2021/07/02 00:09:25;;;;;;;28.63;26.88;;;;;;;17.95;66.70;93036.75;5071008;28;20090;-59
2021/07/02 00:11:50;;;;;;;27.10;25.38;;;;;;;17.90;66.63;93037.88;5070274;28;20382;-59
2021/07/02 00:14:16;;;;;;;27.48;25.98;;;;;;;17.85;66.90;93038.94;5070840;28;20035;-58
2021/07/02 00:16:41;;;;;;;28.15;26.48;;;;;;;17.85;66.35;93041.75;5070867;28;20028;-59
2021/07/02 00:19:06;;;;;;;26.70;25.00;;;;;;;17.64;67.11;93078.13;5070438;28;20584;-59
2021/07/02 00:21:32;;;;;;;35.30;32.70;;;;;;;17.64;67.71;93074.63;5069526;28;20028;-59
2021/07/02 00:23:58;;;;;;;38.38;36.00;;;;;;;17.67;68.62;93074.13;5070395;28;20473;-59
2021/07/02 00:26:24;;;;;;;39.20;36.80;;;;;;;17.63;68.62;93051.53;5070608;28;20020;-59
2021/07/02 00:28:49;;;;;;;38.92;36.38;;;;;;;17.54;69.50;93060.78;5070303;28;20040;-59
2021/07/02 00:31:15;;;;;;;35.70;33.50;;;;;;;17.64;69.73;93049.50;5082151;28;20020;-60
2021/07/02 00:33:40;;;;;;;36.80;34.50;;;;;;;17.64;70.21;93050.22;5085524;28;20578;-59
2021/07/02 00:36:05;;;;;;;37.00;33.97;;;;;;;17.59;70.66;93040.13;5070213;28;20024;-59
2021/07/02 00:38:31;;;;;;;37.03;34.72;;;;;;;17.54;71.26;93029.34;5070127;28;20036;-59
2021/07/02 00:40:56;;;;;;;35.15;32.88;;;;;;;17.60;71.44;93041.59;5070492;28;20028;-59
2021/07/02 00:43:22;;;;;;;33.35;30.58;;;;;;;17.52;71.05;93034.78;5070298;28;20489;-58
2021/07/02 00:45:48;;;;;;;38.63;36.08;;;;;;;17.42;70.63;93013.28;5070180;28;20086;-59
2021/07/02 00:48:14;;;;;;;33.63;31.15;;;;;;;17.34;69.55;93010.00;5070416;28;20081;-59
2021/07/02 00:50:40;;;;;;;34.45;31.60;;;;;;;17.31;70.70;93030.72;5070299;28;20044;-59
2021/07/02 00:53:06;;;;;;;36.22;33.83;;;;;;;17.31;70.59;93027.94;5068884;28;20032;-59
2021/07/02 00:55:32;;;;;;;35.28;32.88;;;;;;;17.29;70.94;93036.16;5088759;28;20039;-59
2021/07/02 00:57:57;;;;;;;35.13;32.63;;;;;;;17.29;70.49;93038.22;5090264;28;20034;-59
2021/07/02 01:00:23;;;;;;;31.85;29.52;;;;;;;17.34;70.54;93039.94;5090198;28;20024;-59
2021/07/02 01:02:48;;;;;;;35.33;33.03;;;;;;;17.29;70.60;93033.38;5090418;28;20107;-59
2021/07/02 01:05:14;;;;;;;35.67;33.05;;;;;;;17.39;70.61;93030.47;5090417;28;20500;-57
2021/07/02 01:07:41;;;;;;;34.78;32.38;;;;;;;17.46;70.49;93040.69;5090246;28;20061;-53
2021/07/02 01:10:07;;;;;;;37.60;35.15;;;;;;;17.39;70.54;93041.63;5090291;28;20055;-55
2021/07/02 01:12:32;;;;;;;33.03;30.60;;;;;;;17.36;70.52;93054.75;5088272;28;20092;-56
2021/07/02 01:14:57;;;;;;;34.33;32.20;;;;;;;17.28;71.00;93045.16;5089851;28;20020;-57
2021/07/02 01:17:23;;;;;;;31.10;28.75;;;;;;;17.28;71.17;93047.94;5089642;28;20024;-51
2021/07/02 01:19:51;;;;;;;32.10;29.90;;;;;;;17.29;71.22;93046.59;5089763;28;20035;-55
2021/07/02 01:22:19;;;;;;;31.20;29.20;;;;;;;17.34;71.34;93057.44;5090029;28;20036;-55
2021/07/02 01:24:44;;;;;;;32.67;30.27;;;;;;;17.28;71.73;93057.03;5090024;28;20024;-55
2021/07/02 01:27:11;;;;;;;33.05;30.85;;;;;;;17.28;72.30;93056.31;5089620;28;20511;-56
2021/07/02 01:29:37;;;;;;;32.40;29.90;;;;;;;17.25;73.09;93049.13;5086425;28;20486;-55
2021/07/02 01:32:02;;;;;;;34.13;31.63;;;;;;;17.34;73.21;93046.25;5087965;28;20088;-59
2021/07/02 01:34:28;;;;;;;33.15;31.00;;;;;;;17.43;73.33;93042.63;5089632;28;20031;-58
2021/07/02 01:36:54;;;;;;;34.97;32.22;;;;;;;17.51;74.28;93044.50;5089956;28;20024;-57
2021/07/02 01:39:19;;;;;;;34.10;31.95;;;;;;;17.62;73.79;93050.09;5089792;28;20055;-57
2021/07/02 01:41:45;;;;;;;32.00;29.80;;;;;;;17.63;74.23;93050.84;5089486;28;20028;-58
2021/07/02 01:44:10;;;;;;;38.63;36.30;;;;;;;17.66;74.21;93036.38;5089798;28;20028;-58
2021/07/02 01:46:36;;;;;;;34.78;32.38;;;;;;;17.69;74.40;93045.63;5089839;28;20016;-59
2021/07/02 01:49:01;;;;;;;34.25;31.77;;;;;;;17.67;75.48;93045.50;5089471;28;20031;-59
2021/07/02 01:51:26;;;;;;;30.45;28.38;;;;;;;17.77;74.98;93046.84;5089506;28;20063;-59
2021/07/02 01:53:52;;;;;;;34.10;31.75;;;;;;;17.62;75.29;93036.13;5089528;28;20024;-59
2021/07/02 01:56:17;;;;;;;29.42;27.17;;;;;;;17.71;75.29;93054.13;5089712;28;20024;-59
2021/07/02 01:58:43;;;;;;;26.77;24.83;;;;;;;17.70;75.66;93045.00;5089776;28;20028;-59
2021/07/02 02:01:08;;;;;;;24.67;23.10;;;;;;;17.75;75.62;93045.97;5089711;28;20477;-59
2021/07/02 02:03:34;;;;;;;27.85;26.15;;;;;;;17.72;74.45;93041.59;5089676;28;20035;-59
2021/07/02 02:05:59;;;;;;;31.23;28.80;;;;;;;17.80;74.28;93042.13;5089380;28;20028;-59
2021/07/02 02:08:24;;;;;;;32.53;30.30;;;;;;;17.71;74.24;93029.72;5089263;28;20023;-58
2021/07/02 02:10:50;;;;;;;32.67;30.67;;;;;;;17.86;73.86;93040.41;5086620;28;20028;-58
2021/07/02 02:13:15;;;;;;;33.30;30.92;;;;;;;17.87;74.36;93027.16;5069116;28;20032;-59
2021/07/02 02:15:41;;;;;;;32.90;30.58;;;;;;;17.89;74.93;93027.28;5069376;28;20074;-60
2021/07/02 02:18:06;;;;;;;30.50;28.30;;;;;;;17.94;75.09;93034.56;5069330;28;20044;-59
2021/07/02 02:20:32;;;;;;;30.25;27.33;;;;;;;18.01;75.07;93039.94;5086293;28;20028;-60
2021/07/02 02:22:57;;;;;;;32.00;29.73;;;;;;;18.02;75.23;93041.38;5088853;28;20028;-60
2021/07/02 02:25:23;;;;;;;30.80;28.50;;;;;;;18.04;74.59;93033.13;5088940;28;20507;-60
2021/07/02 02:27:48;;;;;;;30.23;28.23;;;;;;;18.12;73.79;93033.63;5070692;28;20043;-60
2021/07/02 02:30:14;;;;;;;28.70;26.50;;;;;;;17.99;74.83;93042.59;5074392;28;20020;-56
2021/07/02 02:32:40;;;;;;;28.10;26.30;;;;;;;18.07;74.64;93029.13;5092959;28;20043;-59
2021/07/02 02:35:07;;;;;;;27.23;25.33;;;;;;;18.07;74.62;93017.94;5093124;28;20032;-59
2021/07/02 02:37:33;;;;;;;32.33;30.15;;;;;;;18.13;73.84;93015.50;5093025;28;20024;-59
2021/07/02 02:39:59;;;;;;;35.95;33.47;;;;;;;18.07;73.39;93011.63;5093374;28;20038;-59
2021/07/02 02:42:25;;;;;;;34.55;32.45;;;;;;;18.05;73.52;93012.22;5093022;28;20084;-60
2021/07/02 02:44:50;;;;;;;36.85;34.55;;;;;;;17.98;73.38;93024.38;5092992;28;20473;-60
2021/07/02 02:47:15;;;;;;;36.65;34.28;;;;;;;18.02;73.17;93021.09;5092702;28;20516;-60
2021/07/02 02:49:41;;;;;;;34.17;31.52;;;;;;;18.02;72.66;93023.88;5092599;28;20057;-60
2021/07/02 02:52:07;;;;;;;37.30;34.58;;;;;;;18.12;73.12;93022.44;5092628;28;20024;-59
2021/07/02 02:54:32;;;;;;;33.47;30.88;;;;;;;18.11;72.98;93025.81;5092751;28;20035;-59
2021/07/02 02:57:04;;;;;;;30.88;28.83;;;;;;;18.04;72.12;93027.53;5092377;28;20036;-59
2021/07/02 02:59:29;;;;;;;32.72;30.40;;;;;;;17.95;73.18;93025.56;5092816;28;20023;-60
2021/07/02 03:01:55;;;;;;;32.95;30.48;;;;;;;17.83;72.82;93013.69;5092384;28;20558;-59
2021/07/02 03:04:21;;;;;;;35.15;32.55;;;;;;;17.88;72.37;93025.84;5092268;28;20020;-60
2021/07/02 03:06:46;;;;;;;31.77;29.73;;;;;;;17.90;72.44;93023.91;5092299;28;20032;-59
2021/07/02 03:09:12;;;;;;;32.95;30.70;;;;;;;17.89;72.31;93018.91;5092500;28;20046;-60
2021/07/02 03:11:37;;;;;;;33.88;31.30;;;;;;;17.61;72.86;93019.97;5091871;28;20404;-60
2021/07/02 03:14:02;;;;;;;32.08;30.08;;;;;;;17.71;72.51;93037.38;5091187;28;20020;-60
2021/07/02 03:16:29;;;;;;;31.08;29.30;;;;;;;17.72;72.44;93036.75;5091968;28;20032;-60
2021/07/02 03:18:55;;;;;;;33.60;30.95;;;;;;;17.73;72.20;93034.69;5092308;28;20039;-59
2021/07/02 03:21:20;;;;;;;66.68;57.42;;;;;;;17.66;72.60;93033.59;5092055;28;20051;-60
2021/07/02 03:23:46;;;;;;;82.70;64.63;;;;;;;17.60;73.25;93032.50;5075642;28;20501;-57
2021/07/02 03:26:11;;;;;;;53.58;48.05;;;;;;;17.60;72.97;93030.44;5071862;28;20029;-58
2021/07/02 03:28:36;;;;;;;49.70;44.50;;;;;;;17.65;73.07;93032.13;5071546;28;20028;-58
2021/07/02 03:31:03;;;;;;;36.13;33.53;;;;;;;17.64;73.37;93041.84;5080574;28;20023;-56
2021/07/02 03:33:28;;;;;;;35.30;32.53;;;;;;;17.63;73.48;93039.66;5091504;28;20077;-56
2021/07/02 03:35:53;;;;;;;35.60;33.17;;;;;;;17.61;72.84;93054.22;5091617;28;20574;-59
2021/07/02 03:38:19;;;;;;;33.63;31.42;;;;;;;17.58;72.37;93055.44;5091792;28;20031;-59
2021/07/02 03:40:44;;;;;;;37.08;34.30;;;;;;;17.60;72.91;93052.03;5091481;28;20497;-61
2021/07/02 03:43:10;;;;;;;36.03;32.65;;;;;;;17.59;73.76;93056.88;5091279;28;20439;-62
2021/07/02 03:45:35;;;;;;;36.72;33.58;;;;;;;17.60;73.71;93061.16;5091645;28;20020;-61
2021/07/02 03:48:01;;;;;;;37.42;33.92;;;;;;;17.68;73.66;93067.22;5091478;28;20023;-61
2021/07/02 03:50:26;;;;;;;33.13;30.90;;;;;;;17.63;74.74;93071.09;5091578;28;20405;-61
2021/07/02 03:52:52;;;;;;;37.08;34.38;;;;;;;17.69;74.00;93073.53;5090284;28;20011;-61
2021/07/02 03:55:17;;;;;;;50.08;45.92;;;;;;;17.69;74.16;93077.06;5091434;28;20016;-61
2021/07/02 03:57:43;;;;;;;36.97;34.47;;;;;;;17.76;74.66;93075.38;5098507;28;20136;-61
2021/07/02 04:00:09;;;;;;;34.55;32.05;;;;;;;17.79;74.98;93071.34;5110944;28;20027;-61
2021/07/02 04:02:34;;;;;;;35.75;32.80;;;;;;;17.76;75.05;93076.09;5110199;28;20098;-62
2021/07/02 04:05:00;;;;;;;38.60;34.90;;;;;;;17.81;75.65;93071.47;5110158;28;20031;-62
2021/07/02 04:07:25;;;;;;;41.58;37.17;;;;;;;17.85;75.64;93078.03;5109839;28;20493;-61
2021/07/02 04:09:51;;;;;;;36.78;34.03;;;;;;;17.98;75.86;93063.47;5110043;28;20026;-61
2021/07/02 04:12:16;;;;;;;37.53;35.08;;;;;;;18.13;75.32;93079.03;5095181;28;20426;-62
2021/07/02 04:14:44;;;;;;;36.55;33.55;;;;;;;18.06;75.39;93080.00;5089916;28;20477;-59
2021/07/02 04:17:09;;;;;;;32.38;29.40;;;;;;;17.90;76.02;93063.00;5090706;28;20538;-58
2021/07/02 04:19:36;;;;;;;33.88;30.98;;;;;;;17.98;76.20;93085.81;5078100;28;20063;-59
2021/07/02 04:22:02;;;;;;;30.60;28.10;;;;;;;18.03;76.42;93092.41;5070629;28;20024;-60
2021/07/02 04:24:29;;;;;;;31.25;28.30;;;;;;;18.13;76.33;93093.00;5070643;28;20079;-59
2021/07/02 04:26:55;;;;;;;31.48;29.08;;;;;;;18.31;75.69;93094.09;5070616;28;20044;-59
2021/07/02 04:29:20;;;;;;;32.58;29.90;;;;;;;18.22;76.48;93092.16;5070267;28;20028;-59
2021/07/02 04:31:46;;;;;;;32.72;29.80;;;;;;;18.26;76.38;93091.69;5086479;28;20024;-57
2021/07/02 04:34:11;;;;;;;31.23;29.00;;;;;;;18.22;76.50;93097.75;5090598;28;20045;-58
2021/07/02 04:36:37;;;;;;;33.65;31.10;;;;;;;18.07;76.90;93078.66;5090092;28;20020;-57
2021/07/02 04:39:03;;;;;;;35.17;32.03;;;;;;;18.24;76.94;93100.66;5090809;28;20051;-58
2021/07/02 04:41:28;;;;;;;31.77;29.48;;;;;;;18.31;76.42;93104.53;5090370;28;20028;-59
2021/07/02 04:43:54;;;;;;;30.10;27.55;;;;;;;18.28;77.12;93105.78;5090432;28;20031;-59
2021/07/02 04:46:19;;;;;;;34.65;31.60;;;;;;;18.39;77.33;93105.00;5089989;28;20024;-59
2021/07/02 04:48:45;;;;;;;32.30;29.67;;;;;;;18.47;76.71;93105.53;5090391;28;20038;-58
2021/07/02 04:51:11;;;;;;;32.15;29.55;;;;;;;18.53;76.59;93098.25;5090270;28;20020;-60
2021/07/02 04:53:36;;;;;;;33.63;31.00;;;;;;;18.49;76.72;93111.25;5089688;28;20023;-59
2021/07/02 04:56:02;;;;;;;32.75;30.23;;;;;;;18.49;77.05;93117.59;5090362;28;20161;-59
2021/07/02 04:58:27;;;;;;;31.83;29.42;;;;;;;18.58;77.45;93119.50;5090372;28;20016;-59
2021/07/02 05:00:53;;;;;;;37.33;34.42;;;;;;;18.67;77.30;93120.69;5090144;28;20515;-59
2021/07/02 05:03:18;;;;;;;37.40;34.35;;;;;;;18.65;77.23;93123.38;5090121;28;20062;-59
2021/07/02 05:05:44;;;;;;;41.05;34.90;;;;;;;18.71;77.28;93127.25;5090365;28;20459;-59
2021/07/02 05:08:10;;;;;;;46.92;42.40;;;;;;;18.82;76.97;93125.78;5090203;28;20049;-60
2021/07/02 05:10:36;;;;;;;46.75;42.25;;;;;;;18.73;76.08;93109.88;5088396;28;20036;-60
2021/07/02 05:13:02;;;;;;;45.15;42.00;;;;;;;18.88;75.39;93134.56;5089832;28;20069;-60
2021/07/02 05:15:28;;;;;;;44.83;41.60;;;;;;;18.98;74.82;93135.13;5080577;28;20029;-61
2021/07/02 05:17:53;;;;;;;44.08;41.25;;;;;;;18.99;74.40;93131.00;5069947;28;20545;-60
2021/07/02 05:20:19;;;;;;;43.05;40.38;;;;;;;19.01;73.95;93133.19;5069742;28;20464;-59
2021/07/02 05:22:44;;;;;;;45.25;42.58;;;;;;;19.02;73.63;93132.56;5069729;28;20517;-59
2021/07/02 05:25:10;;;;;;;50.88;47.20;;;;;;;18.95;73.60;93132.84;5069732;28;20028;-59
2021/07/02 05:27:37;;;;;;;53.35;48.05;;;;;;;19.05;73.18;93134.16;5069306;28;20150;-58
2021/07/02 05:30:03;;;;;;;55.13;51.72;;;;;;;19.13;73.03;93133.88;5071150;28;20027;-61
2021/07/02 05:32:28;;;;;;;42.25;39.65;;;;;;;19.11;73.67;93139.34;5089272;28;20048;-60
2021/07/02 05:34:54;;;;;;;59.10;55.80;;;;;;;19.02;73.05;93131.81;5089808;28;20020;-60
2021/07/02 05:37:19;;;;;;;41.83;39.42;;;;;;;18.93;73.55;93139.75;5089859;28;20046;-60
2021/07/02 05:39:45;;;;;;;36.90;34.17;;;;;;;18.90;73.90;93135.41;5089783;28;20051;-60
2021/07/02 05:42:10;;;;;;;43.45;39.22;;;;;;;18.68;74.87;93102.59;5096812;28;20067;-59
2021/07/02 05:44:35;;;;;;;37.78;34.90;;;;;;;18.89;74.66;93136.00;5109614;28;20019;-60
2021/07/02 05:47:01;;;;;;;41.85;39.13;;;;;;;19.01;74.14;93144.38;5109300;28;20075;-60
2021/07/02 05:49:26;;;;;;;36.75;34.67;;;;;;;19.12;73.56;93141.56;5109451;28;20101;-60
2021/07/02 05:51:52;;;;;;;40.97;38.00;;;;;;;19.15;74.10;93137.50;5108410;28;20031;-60
2021/07/02 05:54:18;;;;;;;49.88;46.63;;;;;;;19.26;73.30;93136.75;5109092;28;20564;-60
2021/07/02 05:56:45;;;;;;;45.00;42.45;;;;;;;19.33;72.99;93143.41;5108987;28;20042;-60
2021/07/02 05:59:13;;;;;;;57.08;53.58;;;;;;;19.41;72.51;93144.63;5109411;28;20052;-60
2021/07/02 06:01:38;;;;;;;55.75;52.58;;;;;;;19.52;71.93;93151.53;5109584;28;20092;-60
2021/07/02 06:04:04;;;;;;;61.15;57.85;;;;;;;19.60;72.06;93141.50;5109862;28;20024;-58
2021/07/02 06:06:30;;;;;;;62.50;59.28;;;;;;;19.82;71.93;93146.88;5113784;28;20544;-59
2021/07/02 06:08:56;;;;;;;53.10;50.45;;;;;;;19.93;70.58;93152.44;5113838;28;20043;-58
2021/07/02 06:11:22;;;;;;;54.92;51.75;;;;;;;20.06;70.36;93162.22;5094603;28;20516;-58
2021/07/02 06:13:47;;;;;;;54.25;51.33;;;;;;;20.02;70.13;93159.19;5074254;28;20024;-59
2021/07/02 06:16:13;;;;;;;51.90;49.00;;;;;;;20.14;69.96;93152.16;5072787;28;20024;-59
2021/07/02 06:18:39;;;;;;;44.03;41.38;;;;;;;20.31;68.58;93153.81;5075946;28;20416;-60
2021/07/02 06:21:04;;;;;;;41.72;39.08;;;;;;;20.45;69.04;93162.97;5093214;28;20024;-60
2021/07/02 06:23:34;;;;;;;47.25;44.38;;;;;;;20.50;68.58;93167.44;5093033;28;20032;-60
2021/07/02 06:26:00;;;;;;;45.03;42.60;;;;;;;20.44;69.33;93150.31;5083806;28;20112;-59
2021/07/02 06:28:28;;;;;;;47.42;44.45;;;;;;;20.54;69.07;93164.84;5094325;28;20141;-60
2021/07/02 06:30:53;;;;;;;40.03;37.60;;;;;;;20.59;69.17;93148.97;5092998;28;20028;-59
2021/07/02 06:33:19;;;;;;;43.53;40.80;;;;;;;20.62;68.99;93156.16;5092538;28;20569;-59
2021/07/02 06:35:44;;;;;;;111.60;100.97;;;;;;;20.72;68.34;93162.28;5092932;28;20032;-60
2021/07/02 06:38:10;;;;;;;36.92;34.78;;;;;;;20.90;68.04;93157.59;5092564;28;20734;-59
2021/07/02 06:40:35;;;;;;;38.08;35.92;;;;;;;20.99;67.63;93159.44;5103335;28;20035;-59
2021/07/02 06:43:01;;;;;;;35.38;33.38;;;;;;;21.05;67.33;93162.63;5113223;28;20028;-60
2021/07/02 06:45:26;;;;;;;40.22;37.53;;;;;;;20.97;67.68;93168.50;5113147;27;20023;-60
2021/07/02 06:48:02;;;;;;;35.05;32.53;;;;;;;21.07;67.64;93168.34;5103652;28;20374;-60
2021/07/02 06:50:29;;;;;;;34.80;32.63;;;;;;;21.17;66.19;93159.69;5073565;28;20425;-59
2021/07/02 06:52:55;;;;;;;34.25;32.13;;;;;;;21.17;64.95;93151.25;5072195;28;20135;-60
2021/07/02 06:55:21;;;;;;;35.90;33.42;;;;;;;21.26;64.41;93153.13;5072223;28;20100;-60
2021/07/02 06:57:46;;;;;;;37.38;34.72;;;;;;;21.35;64.40;93152.91;5072113;28;20032;-60
2021/07/02 07:00:12;;;;;;;28.77;27.15;;;;;;;21.30;63.56;93142.81;5072136;28;20086;-60
2021/07/02 07:02:38;;;;;;;31.67;29.70;;;;;;;21.43;62.33;93158.91;5071938;28;20025;-59
2021/07/02 07:05:04;;;;;;;19.20;18.10;;;;;;;21.45;61.13;93150.59;5072152;28;20092;-60
2021/07/02 07:07:29;;;;;;;32.53;30.52;;;;;;;21.57;62.43;93153.97;5071745;28;20502;-60
2021/07/02 07:09:55;;;;;;;15.15;14.13;;;;;;;21.58;60.08;93151.91;5071775;28;20125;-60
2021/07/02 07:12:20;;;;;;;21.25;19.92;;;;;;;21.61;61.21;93151.34;5086599;28;20020;-60
2021/07/02 07:14:47;;;;;;;30.95;29.27;;;;;;;21.73;61.76;93148.41;5091951;28;20412;-60
2021/07/02 07:17:13;;;;;;;24.00;22.70;;;;;;;21.82;60.82;93153.06;5091858;28;20043;-60
2021/07/02 07:19:38;;;;;;;21.80;15.38;;;;;;;21.82;59.44;93153.06;5081822;28;20060;-60
2021/07/02 07:22:04;;;;;;;17.58;16.48;;;;;;;21.91;58.77;93151.41;5071343;28;20028;-60
2021/07/02 07:24:30;;;;;;;15.55;14.35;;;;;;;21.80;58.36;93141.72;5070902;28;20035;-61
2021/07/02 07:26:56;;;;;;;15.73;14.40;;;;;;;21.91;57.43;93149.31;5071494;28;20028;-60
2021/07/02 07:29:25;;;;;;;13.88;12.75;;;;;;;21.95;57.41;93143.88;5071370;28;20023;-60
2021/07/02 07:31:51;;;;;;;13.48;12.57;;;;;;;22.22;57.69;93154.28;5088172;28;20070;-60
2021/07/02 07:34:29;;;;;;;12.27;11.02;;;;;;;22.47;57.87;93154.03;5091875;28;20081;-61
2021/07/02 07:36:57;;;;;;;9.93;9.30;;;;;;;22.62;55.54;93161.78;5091540;28;20024;-60
2021/07/02 07:39:23;;;;;;;10.50;9.82;;;;;;;22.71;56.08;93160.78;5091348;28;20501;-60
2021/07/02 07:41:48;;;;;;;8.52;7.60;;;;;;;22.95;55.58;93161.84;5091632;28;20031;-60
2021/07/02 07:44:14;;;;;;;7.35;6.75;;;;;;;23.29;54.09;93151.31;5091494;28;20121;-61
2021/07/02 07:46:40;;;;;;;7.63;5.97;;;;;;;23.60;52.03;93156.16;5091267;28;20035;-61
2021/07/02 07:49:05;;;;;;;7.60;6.90;;;;;;;23.82;52.38;93166.22;5091506;28;20020;-61
2021/07/02 07:51:37;;;;;;;5.97;5.45;;;;;;;24.16;50.99;93160.53;5091481;28;20012;-61
2021/07/02 07:54:02;;;;;;;9.02;5.90;;;;;;;24.37;51.32;93143.03;5091108;28;20107;-59
2021/07/02 07:56:30;;;;;;;7.80;7.18;;;;;;;24.71;54.43;93155.63;5080587;28;20527;-59
2021/07/02 07:58:56;;;;;;;13.38;6.60;;;;;;;24.51;53.54;93144.28;5080108;28;20513;-60
2021/07/02 08:01:22;;;;;;;10.02;6.90;;;;;;;24.35;53.45;93149.31;5078966;28;20386;-59
2021/07/02 08:03:47;;;;;;;6.65;6.03;;;;;;;24.18;54.95;93154.97;5080921;28;20046;-60
2021/07/02 08:06:12;;;;;;;8.35;6.82;;;;;;;24.27;53.97;93151.84;5077920;28;20027;-57
2021/07/02 08:08:38;;;;;;;7.88;7.10;;;;;;;24.23;55.06;93157.31;5079157;28;20039;-54
2021/07/02 08:11:03;;;;;;;8.30;7.47;;;;;;;24.06;55.56;93158.78;5080125;28;20023;-57
2021/07/02 08:13:29;;;;;;;7.78;7.18;;;;;;;23.97;55.20;93154.16;5079025;28;20017;-58
2021/07/02 08:15:58;;;;;;;5.53;4.90;;;;;;;24.19;50.48;93150.81;5079144;28;20102;-58
2021/07/02 08:18:23;;;;;;;5.43;4.93;;;;;;;24.58;49.07;93153.72;5080366;28;20370;-60
2021/07/02 08:20:49;;;;;;;5.43;4.43;;;;;;;24.95;49.07;93147.34;5079753;28;20035;-57
2021/07/02 08:23:14;;;;;;;8.40;5.32;;;;;;;24.74;49.29;93151.47;5084361;28;20031;-58
2021/07/02 08:25:40;;;;;;;5.38;4.97;;;;;;;25.25;50.44;93165.38;5087055;28;20040;-61
2021/07/02 08:30:50;;;;;;;6.90;6.38;;;;;;;25.40;50.77;93168.00;5082754;28;20103;-59
2021/07/02 08:33:18;;;;;;;7.05;6.40;;;;;;;25.27;50.81;93166.16;5079174;28;20045;-61
2021/07/02 08:35:47;;;;;;;7.93;4.47;;;;;;;25.23;47.71;93168.81;5080888;28;20413;-59
2021/07/02 08:38:13;;;;;;;6.82;4.80;;;;;;;25.21;48.00;93163.09;5079318;28;20020;-60
2021/07/02 08:40:39;;;;;;;5.00;4.40;;;;;;;25.33;47.14;93163.53;5080080;28;20070;-60
2021/07/02 08:43:05;;;;;;;5.35;4.43;;;;;;;25.54;46.53;93162.16;5077677;28;20408;-60
2021/07/02 08:45:30;;;;;;;6.13;4.82;;;;;;;25.93;47.68;93159.22;5083636;28;20020;-60
2021/07/02 08:48:03;;;;;;;6.20;5.70;;;;;;;26.12;44.83;93164.09;5078016;28;20028;-63
2021/07/02 08:50:29;;;;;;;7.43;6.13;;;;;;;25.77;46.08;93166.47;5078337;28;20107;-61
2021/07/02 08:52:55;;;;;;;7.75;6.95;;;;;;;25.72;48.68;93167.69;5077440;28;20142;-60
2021/07/02 08:55:20;;;;;;;8.32;7.53;;;;;;;25.48;50.20;93167.59;5079440;28;20020;-61
2021/07/02 08:57:46;;;;;;;9.32;7.35;;;;;;;24.96;49.41;93157.97;5077695;28;20035;-60
2021/07/02 09:00:11;;;;;;;10.35;7.32;;;;;;;25.03;50.54;93150.44;5079150;28;20636;-59
2021/07/02 09:02:40;;;;;;;8.90;8.10;;;;;;;24.96;51.38;93160.78;5079087;28;20035;-62
2021/07/02 09:05:32;;;;;;;7.67;6.93;;;;;;;24.80;51.20;93163.75;5077561;28;20032;-60
2021/07/02 09:07:57;;;;;;;10.48;7.28;;;;;;;24.53;51.33;93163.41;5083072;28;20034;-60
2021/07/02 09:10:34;;;;;;;12.07;7.35;;;;;;;24.36;52.82;93162.06;5082303;28;20024;-60
2021/07/02 09:13:00;;;;;;;8.13;7.43;;;;;;;24.31;52.58;93159.72;5088655;28;20022;-60
2021/07/02 09:15:25;;;;;;;64.15;59.42;;;;;;;24.26;53.75;93161.66;5080433;28;20102;-60
2021/07/02 09:17:50;;;;;;;7.32;6.78;;;;;;;24.19;53.13;93150.81;5080254;28;20021;-61
2021/07/02 09:20:24;;;;;;;11.50;7.18;;;;;;;24.12;52.29;93151.94;5079101;28;20038;-61
2021/07/02 09:22:58;;;;;;;23.60;7.78;;;;;;;24.42;53.29;93151.00;5079287;28;20017;-60
2021/07/02 09:25:36;;;;;;;22.15;7.95;;;;;;;24.94;52.36;93154.34;5076725;28;20013;-60
2021/07/02 09:28:10;;;;;;;7.00;6.45;;;;;;;25.31;50.04;93151.44;5078194;28;20472;-64
2021/07/02 09:30:41;;;;;;;7.97;7.10;;;;;;;25.20;50.37;93127.75;5076935;28;20032;-60
2021/07/02 09:33:08;;;;;;;6.72;6.03;;;;;;;25.41;49.42;93143.28;5078364;28;20424;-61
2021/07/02 09:35:50;;;;;;;6.30;5.70;;;;;;;25.35;48.91;93143.09;5076910;28;20032;-60
2021/07/02 09:38:37;;;;;;;6.13;5.63;;;;;;;25.66;48.66;93116.59;5077673;28;20082;-60
2021/07/02 09:41:04;;;;;;;6.45;5.13;;;;;;;25.87;47.00;93130.00;5095364;28;20027;-60
2021/07/02 09:43:30;;;;;;;7.22;5.60;;;;;;;25.58;47.29;93131.91;5083191;28;20398;-64
2021/07/02 09:46:04;;;;;;;11.82;10.93;;;;;;;25.25;48.22;93131.44;5086336;28;20056;-61
2021/07/02 09:48:31;;;;;;;5.80;5.30;;;;;;;25.03;49.56;93134.22;5080787;28;20501;-60
2021/07/02 09:51:01;;;;;;;9.38;6.15;;;;;;;25.09;49.32;93134.44;5083500;28;20016;-61
2021/07/02 09:53:30;;;;;;;6.60;5.95;;;;;;;25.26;47.96;93138.53;5082585;28;20013;-60
2021/07/02 09:55:58;;;;;;;5.47;5.10;;;;;;;25.19;49.03;93136.88;5081216;28;20534;-62
2021/07/02 09:58:27;;;;;;;5.22;4.75;;;;;;;25.31;47.97;93131.66;5082602;28;20022;-60
2021/07/02 10:00:59;;;;;;;6.60;4.60;;;;;;;25.45;47.66;93127.22;5078678;28;20056;-61
2021/07/02 10:03:31;;;;;;;7.40;5.25;;;;;;;25.58;48.37;93122.69;5080346;28;20027;-61
2021/07/02 10:05:58;;;;;;;5.78;5.30;;;;;;;25.46;46.79;93125.13;5083327;28;20029;-59
2021/07/02 10:08:25;;;;;;;6.68;5.10;;;;;;;25.39;46.60;93123.44;5083965;28;20036;-60
2021/07/02 10:10:52;;;;;;;6.18;4.70;;;;;;;25.60;45.93;93122.06;5083487;28;20480;-58
2021/07/02 10:13:19;;;;;;;6.13;5.13;;;;;;;25.75;45.82;93123.97;5080889;28;20020;-60
2021/07/02 10:15:45;;;;;;;6.43;5.07;;;;;;;26.06;45.71;93110.13;5088301;28;20104;-60
2021/07/02 10:18:12;;;;;;;7.07;4.43;;;;;;;26.31;45.61;93118.00;5080801;28;20487;-61
2021/07/02 10:20:39;;;;;;;5.85;5.35;;;;;;;26.21;44.64;93109.22;5077385;28;20097;-59
2021/07/02 10:23:05;;;;;;;5.93;5.43;;;;;;;26.27;45.32;93117.88;5081546;28;20024;-60
2021/07/02 10:25:30;;;;;;;5.68;4.88;;;;;;;26.17;45.68;93099.88;5080843;28;20036;-59
2021/07/02 10:27:56;;;;;;;10.48;4.50;;;;;;;26.54;47.12;93110.91;5080095;28;20044;-59
2021/07/02 10:30:23;;;;;;;4.80;4.40;;;;;;;27.01;44.85;93105.19;5080867;28;20405;-59
2021/07/02 10:32:59;;;;;;;7.43;4.07;;;;;;;27.48;43.73;93110.00;5080850;28;20060;-59
2021/07/02 10:35:25;;;;;;;4.68;3.85;;;;;;;28.08;41.33;93108.00;5084839;28;20027;-59
2021/07/02 10:37:58;;;;;;;4.60;4.20;;;;;;;28.78;41.04;93106.03;5087816;28;20024;-60
2021/07/02 10:40:33;;;;;;;3.53;3.25;;;;;;;29.35;38.48;93093.69;5080612;28;20031;-59
2021/07/02 10:43:05;;;;;;;7.93;3.90;;;;;;;30.05;38.97;93096.31;5080568;28;20051;-60
2021/07/02 10:45:30;;;;;;;6.13;3.13;;;;;;;30.34;37.12;93107.50;5080570;28;20481;-59
2021/07/02 10:47:57;;;;;;;3.80;3.40;;;;;;;30.82;36.08;93109.59;5082152;28;20020;-60
2021/07/02 10:50:41;;;;;;;4.43;3.30;;;;;;;30.75;35.53;93103.09;5080610;28;20063;-59
2021/07/02 10:53:26;;;;;;;3.22;2.97;;;;;;;30.76;34.68;93113.06;5082406;28;20054;-59
2021/07/02 10:55:52;;;;;;;3.22;3.03;;;;;;;30.71;34.87;93103.75;5079967;28;20025;-59
2021/07/02 10:58:20;;;;;;;4.03;3.20;;;;;;;30.63;35.69;93103.66;5080424;28;20020;-59
2021/07/02 11:01:09;;;;;;;3.30;3.10;;;;;;;30.75;34.76;93094.56;5080022;28;20024;-58
2021/07/02 11:03:34;;;;;;;6.95;3.05;;;;;;;30.66;35.90;93096.56;5081858;28;20458;-57
2021/07/02 11:06:46;;;;;;;6.85;3.40;;;;;;;30.33;37.44;93102.50;5080331;28;20097;-57
2021/07/02 11:09:12;;;;;;;4.45;3.72;;;;;;;29.48;36.37;93100.31;5072121;28;20032;-57
2021/07/02 11:12:09;;;;;;;4.50;4.10;;;;;;;28.69;39.00;93098.03;5081722;28;20016;-58
2021/07/02 11:14:54;;;;;;;5.25;4.15;;;;;;;27.71;39.82;93106.38;5081949;28;20020;-58
2021/07/02 11:17:26;;;;;;;5.38;4.43;;;;;;;27.24;41.58;93109.38;5079721;28;20506;-58
2021/07/02 11:22:37;;;;;;;5.40;5.05;;;;;;;26.40;44.80;93107.63;5081574;28;20395;-59
2021/07/02 11:25:06;;;;;;;7.07;4.97;;;;;;;26.57;46.99;93115.25;5080443;28;20013;-59
2021/07/02 11:27:32;;;;;;;;;;;;;;;26.53;44.13;93109.44;5080629;28;20028;-58